sensor_id;sensor_type;location;lat;lon;timestamp;pressure;altitude;pressure_sealevel;temperature;humidity
76730;BME280;65653;53.106;18.046;2024-01-10T00:01:43;102818.34;;;-6.01;94.06
76730;BME280;65653;53.106;18.046;2024-01-10T00:04:10;102816.54;;;-5.96;93.85
76730;BME280;65653;53.106;18.046;2024-01-10T00:06:36;102810.56;;;-5.95;93.91
76730;BME280;65653;53.106;18.046;2024-01-10T00:09:07;102804.33;;;-5.96;94.63
76730;BME280;65653;53.106;18.046;2024-01-10T00:11:35;102803.05;;;-5.96;94.45
76730;BME280;65653;53.106;18.046;2024-01-10T00:14:01;102799.34;;;-5.92;93.90
76730;BME280;65653;53.106;18.046;2024-01-10T00:16:29;102801.77;;;-5.90;94.61
76730;BME280;65653;53.106;18.046;2024-01-10T00:18:56;102799.71;;;-5.88;95.24
76730;BME280;65653;53.106;18.046;2024-01-10T00:21:22;102790.90;;;-5.87;95.67
76730;BME280;65653;53.106;18.046;2024-01-10T00:23:49;102784.42;;;-5.87;96.15
76730;BME280;65653;53.106;18.046;2024-01-10T00:26:17;102783.48;;;-5.86;96.58
76730;BME280;65653;53.106;18.046;2024-01-10T00:28:43;102773.91;;;-5.85;97.48
76730;BME280;65653;53.106;18.046;2024-01-10T00:31:13;102770.05;;;-5.83;97.90
76730;BME280;65653;53.106;18.046;2024-01-10T00:33:40;102764.95;;;-5.81;98.72
76730;BME280;65653;53.106;18.046;2024-01-10T00:36:15;102764.17;;;-5.80;98.67
76730;BME280;65653;53.106;18.046;2024-01-10T00:38:41;102760.36;;;-5.79;98.55
76730;BME280;65653;53.106;18.046;2024-01-10T00:41:08;102755.95;;;-5.76;98.32
76730;BME280;65653;53.106;18.046;2024-01-10T00:43:34;102755.30;;;-5.73;98.13
76730;BME280;65653;53.106;18.046;2024-01-10T00:46:01;102750.25;;;-5.72;98.57
76730;BME280;65653;53.106;18.046;2024-01-10T00:48:27;102752.70;;;-5.70;98.89
76730;BME280;65653;53.106;18.046;2024-01-10T00:50:54;102748.34;;;-5.69;99.12
76730;BME280;65653;53.106;18.046;2024-01-10T00:53:20;102752.67;;;-5.70;99.38
76730;BME280;65653;53.106;18.046;2024-01-10T00:55:47;102753.20;;;-5.70;99.55
76730;BME280;65653;53.106;18.046;2024-01-10T00:58:14;102745.47;;;-5.69;99.93
76730;BME280;65653;53.106;18.046;2024-01-10T01:00:41;102750.63;;;-5.68;100.00
76730;BME280;65653;53.106;18.046;2024-01-10T01:03:07;102747.50;;;-5.66;100.00
76730;BME280;65653;53.106;18.046;2024-01-10T01:05:34;102749.89;;;-5.62;99.99
76730;BME280;65653;53.106;18.046;2024-01-10T01:08:00;102749.95;;;-5.58;100.00
76730;BME280;65653;53.106;18.046;2024-01-10T01:10:26;102755.21;;;-5.55;99.91
76730;BME280;65653;53.106;18.046;2024-01-10T01:12:53;102754.17;;;-5.51;99.75
76730;BME280;65653;53.106;18.046;2024-01-10T01:15:19;102755.84;;;-5.47;100.00
76730;BME280;65653;53.106;18.046;2024-01-10T01:17:46;102746.90;;;-5.43;100.00
76730;BME280;65653;53.106;18.046;2024-01-10T01:20:12;102753.13;;;-5.41;100.00
76730;BME280;65653;53.106;18.046;2024-01-10T01:22:39;102758.56;;;-5.38;100.00
76730;BME280;65653;53.106;18.046;2024-01-10T01:25:05;102754.27;;;-5.33;99.96
76730;BME280;65653;53.106;18.046;2024-01-10T01:27:32;102747.90;;;-5.31;99.62
76730;BME280;65653;53.106;18.046;2024-01-10T01:29:59;102747.65;;;-5.29;99.92
76730;BME280;65653;53.106;18.046;2024-01-10T01:32:25;102747.25;;;-5.28;100.00
76730;BME280;65653;53.106;18.046;2024-01-10T01:34:52;102745.98;;;-5.28;100.00
76730;BME280;65653;53.106;18.046;2024-01-10T01:37:18;102743.47;;;-5.28;100.00
76730;BME280;65653;53.106;18.046;2024-01-10T01:39:45;102737.80;;;-5.31;100.00
76730;BME280;65653;53.106;18.046;2024-01-10T01:42:11;102733.65;;;-5.31;100.00
76730;BME280;65653;53.106;18.046;2024-01-10T01:44:38;102733.83;;;-5.30;100.00
76730;BME280;65653;53.106;18.046;2024-01-10T01:47:05;102729.11;;;-5.30;100.00
76730;BME280;65653;53.106;18.046;2024-01-10T01:49:32;102726.95;;;-5.30;100.00
76730;BME280;65653;53.106;18.046;2024-01-10T01:51:59;102724.93;;;-5.28;100.00
76730;BME280;65653;53.106;18.046;2024-01-10T01:54:26;102723.92;;;-5.25;100.00
76730;BME280;65653;53.106;18.046;2024-01-10T01:56:53;102722.02;;;-5.23;100.00
76730;BME280;65653;53.106;18.046;2024-01-10T01:59:19;102727.66;;;-5.19;100.00
76730;BME280;65653;53.106;18.046;2024-01-10T02:01:46;102730.77;;;-5.16;100.00
76730;BME280;65653;53.106;18.046;2024-01-10T02:04:13;102726.36;;;-5.14;100.00
76730;BME280;65653;53.106;18.046;2024-01-10T02:06:39;102723.23;;;-5.12;100.00
76730;BME280;65653;53.106;18.046;2024-01-10T02:09:06;102718.79;;;-5.08;100.00
76730;BME280;65653;53.106;18.046;2024-01-10T02:11:32;102714.63;;;-5.08;100.00
76730;BME280;65653;53.106;18.046;2024-01-10T02:13:59;102712.84;;;-5.08;100.00
76730;BME280;65653;53.106;18.046;2024-01-10T02:16:26;102710.48;;;-5.08;100.00
76730;BME280;65653;53.106;18.046;2024-01-10T02:18:53;102708.31;;;-5.08;100.00
76730;BME280;65653;53.106;18.046;2024-01-10T02:21:23;102708.25;;;-5.06;100.00
76730;BME280;65653;53.106;18.046;2024-01-10T02:23:49;102707.86;;;-5.05;100.00
76730;BME280;65653;53.106;18.046;2024-01-10T02:26:16;102702.60;;;-5.05;100.00
76730;BME280;65653;53.106;18.046;2024-01-10T02:28:42;102706.20;;;-5.05;100.00
76730;BME280;65653;53.106;18.046;2024-01-10T02:31:09;102706.55;;;-5.04;100.00
76730;BME280;65653;53.106;18.046;2024-01-10T02:33:35;102703.60;;;-5.02;100.00
76730;BME280;65653;53.106;18.046;2024-01-10T02:36:02;102709.79;;;-4.99;100.00
76730;BME280;65653;53.106;18.046;2024-01-10T02:38:29;102706.48;;;-4.97;100.00
76730;BME280;65653;53.106;18.046;2024-01-10T02:40:55;102708.09;;;-4.97;100.00
76730;BME280;65653;53.106;18.046;2024-01-10T02:43:23;102706.95;;;-4.95;100.00
76730;BME280;65653;53.106;18.046;2024-01-10T02:45:49;102708.46;;;-4.92;100.00
76730;BME280;65653;53.106;18.046;2024-01-10T02:48:15;102704.24;;;-4.91;100.00
76730;BME280;65653;53.106;18.046;2024-01-10T02:50:42;102706.02;;;-4.89;100.00
76730;BME280;65653;53.106;18.046;2024-01-10T02:53:09;102706.36;;;-4.89;100.00
76730;BME280;65653;53.106;18.046;2024-01-10T02:55:35;102706.67;;;-4.88;100.00
76730;BME280;65653;53.106;18.046;2024-01-10T02:58:02;102710.03;;;-4.86;100.00
76730;BME280;65653;53.106;18.046;2024-01-10T03:00:28;102715.77;;;-4.86;100.00
76730;BME280;65653;53.106;18.046;2024-01-10T03:02:55;102714.77;;;-4.88;100.00
76730;BME280;65653;53.106;18.046;2024-01-10T03:05:22;102711.66;;;-4.91;100.00
76730;BME280;65653;53.106;18.046;2024-01-10T03:07:49;102712.09;;;-4.93;100.00
76730;BME280;65653;53.106;18.046;2024-01-10T03:10:15;102710.48;;;-4.98;100.00
76730;BME280;65653;53.106;18.046;2024-01-10T03:12:42;102704.80;;;-5.10;100.00
76730;BME280;65653;53.106;18.046;2024-01-10T03:15:09;102705.58;;;-5.16;100.00
76730;BME280;65653;53.106;18.046;2024-01-10T03:17:35;102700.65;;;-5.20;100.00
76730;BME280;65653;53.106;18.046;2024-01-10T03:20:03;102693.20;;;-5.27;100.00
76730;BME280;65653;53.106;18.046;2024-01-10T03:22:31;102698.46;;;-5.33;100.00
76730;BME280;65653;53.106;18.046;2024-01-10T03:24:58;102698.06;;;-5.37;100.00
76730;BME280;65653;53.106;18.046;2024-01-10T03:27:25;102697.08;;;-5.40;100.00
76730;BME280;65653;53.106;18.046;2024-01-10T03:29:51;102690.57;;;-5.43;100.00
76730;BME280;65653;53.106;18.046;2024-01-10T03:32:18;102692.59;;;-5.44;100.00
76730;BME280;65653;53.106;18.046;2024-01-10T03:34:44;102690.77;;;-5.49;100.00
76730;BME280;65653;53.106;18.046;2024-01-10T03:37:11;102691.98;;;-5.53;100.00
76730;BME280;65653;53.106;18.046;2024-01-10T03:39:37;102691.98;;;-5.57;100.00
76730;BME280;65653;53.106;18.046;2024-01-10T03:42:04;102688.92;;;-5.63;100.00
76730;BME280;65653;53.106;18.046;2024-01-10T03:44:30;102683.61;;;-5.65;100.00
76730;BME280;65653;53.106;18.046;2024-01-10T03:46:57;102679.63;;;-5.64;100.00
76730;BME280;65653;53.106;18.046;2024-01-10T03:49:24;102670.70;;;-5.66;100.00
76730;BME280;65653;53.106;18.046;2024-01-10T03:51:50;102670.25;;;-5.68;100.00
76730;BME280;65653;53.106;18.046;2024-01-10T03:54:17;102666.31;;;-5.69;100.00
76730;BME280;65653;53.106;18.046;2024-01-10T03:56:44;102663.15;;;-5.71;100.00
76730;BME280;65653;53.106;18.046;2024-01-10T03:59:10;102653.47;;;-5.72;100.00
76730;BME280;65653;53.106;18.046;2024-01-10T04:01:37;102652.96;;;-5.73;100.00
76730;BME280;65653;53.106;18.046;2024-01-10T04:04:05;102661.20;;;-5.72;100.00
76730;BME280;65653;53.106;18.046;2024-01-10T04:06:32;102658.02;;;-5.74;100.00
76730;BME280;65653;53.106;18.046;2024-01-10T04:08:58;102658.57;;;-5.74;100.00
76730;BME280;65653;53.106;18.046;2024-01-10T04:11:25;102656.40;;;-5.74;100.00
76730;BME280;65653;53.106;18.046;2024-01-10T04:13:51;102659.64;;;-5.74;100.00
76730;BME280;65653;53.106;18.046;2024-01-10T04:16:18;102667.35;;;-5.73;100.00
76730;BME280;65653;53.106;18.046;2024-01-10T04:18:44;102665.66;;;-5.71;100.00
76730;BME280;65653;53.106;18.046;2024-01-10T04:21:11;102668.83;;;-5.69;100.00
76730;BME280;65653;53.106;18.046;2024-01-10T04:23:37;102658.50;;;-5.67;100.00
76730;BME280;65653;53.106;18.046;2024-01-10T04:26:04;102653.09;;;-5.67;100.00
76730;BME280;65653;53.106;18.046;2024-01-10T04:28:31;102652.00;;;-5.66;100.00
76730;BME280;65653;53.106;18.046;2024-01-10T04:30:57;102645.33;;;-5.66;100.00
76730;BME280;65653;53.106;18.046;2024-01-10T04:33:24;102647.45;;;-5.65;100.00
76730;BME280;65653;53.106;18.046;2024-01-10T04:35:50;102642.73;;;-5.64;100.00
76730;BME280;65653;53.106;18.046;2024-01-10T04:38:17;102637.84;;;-5.63;100.00
76730;BME280;65653;53.106;18.046;2024-01-10T04:40:44;102638.61;;;-5.60;100.00
76730;BME280;65653;53.106;18.046;2024-01-10T04:43:11;102638.90;;;-5.57;100.00
76730;BME280;65653;53.106;18.046;2024-01-10T04:45:37;102645.68;;;-5.56;100.00
76730;BME280;65653;53.106;18.046;2024-01-10T04:48:04;102648.62;;;-5.53;100.00
76730;BME280;65653;53.106;18.046;2024-01-10T04:50:30;102645.08;;;-5.49;100.00
76730;BME280;65653;53.106;18.046;2024-01-10T04:52:57;102638.77;;;-5.49;100.00
76730;BME280;65653;53.106;18.046;2024-01-10T04:55:23;102637.96;;;-5.47;100.00
76730;BME280;65653;53.106;18.046;2024-01-10T04:57:50;102636.02;;;-5.47;100.00
76730;BME280;65653;53.106;18.046;2024-01-10T05:00:17;102635.45;;;-5.47;100.00
76730;BME280;65653;53.106;18.046;2024-01-10T05:02:43;102641.73;;;-5.47;100.00
76730;BME280;65653;53.106;18.046;2024-01-10T05:05:10;102639.14;;;-5.45;100.00
76730;BME280;65653;53.106;18.046;2024-01-10T05:07:36;102636.22;;;-5.44;100.00
76730;BME280;65653;53.106;18.046;2024-01-10T05:10:03;102631.64;;;-5.42;100.00
76730;BME280;65653;53.106;18.046;2024-01-10T05:12:30;102634.94;;;-5.39;100.00
76730;BME280;65653;53.106;18.046;2024-01-10T05:14:57;102639.40;;;-5.32;100.00
76730;BME280;65653;53.106;18.046;2024-01-10T05:17:23;102640.13;;;-5.28;100.00
76730;BME280;65653;53.106;18.046;2024-01-10T05:19:50;102640.70;;;-5.24;100.00
76730;BME280;65653;53.106;18.046;2024-01-10T05:22:17;102642.41;;;-5.22;100.00
76730;BME280;65653;53.106;18.046;2024-01-10T05:24:43;102644.31;;;-5.20;100.00
76730;BME280;65653;53.106;18.046;2024-01-10T05:27:10;102647.83;;;-5.18;100.00
76730;BME280;65653;53.106;18.046;2024-01-10T05:29:37;102646.32;;;-5.16;100.00
76730;BME280;65653;53.106;18.046;2024-01-10T05:32:04;102647.66;;;-5.13;100.00
76730;BME280;65653;53.106;18.046;2024-01-10T05:34:30;102642.04;;;-5.12;100.00
76730;BME280;65653;53.106;18.046;2024-01-10T05:36:57;102635.92;;;-5.12;100.00
76730;BME280;65653;53.106;18.046;2024-01-10T05:39:24;102634.29;;;-5.12;100.00
76730;BME280;65653;53.106;18.046;2024-01-10T05:41:50;102635.52;;;-5.11;100.00
76730;BME280;65653;53.106;18.046;2024-01-10T05:44:17;102636.05;;;-5.11;100.00
76730;BME280;65653;53.106;18.046;2024-01-10T05:46:43;102633.23;;;-5.08;100.00
76730;BME280;65653;53.106;18.046;2024-01-10T05:49:10;102631.89;;;-5.06;100.00
76730;BME280;65653;53.106;18.046;2024-01-10T05:51:37;102625.90;;;-5.05;100.00
76730;BME280;65653;53.106;18.046;2024-01-10T05:54:04;102625.31;;;-5.04;100.00
76730;BME280;65653;53.106;18.046;2024-01-10T05:56:30;102631.59;;;-5.03;100.00
76730;BME280;65653;53.106;18.046;2024-01-10T05:58:57;102634.45;;;-5.02;100.00
76730;BME280;65653;53.106;18.046;2024-01-10T06:01:23;102632.60;;;-5.01;100.00
76730;BME280;65653;53.106;18.046;2024-01-10T06:03:50;102633.21;;;-4.98;100.00
76730;BME280;65653;53.106;18.046;2024-01-10T06:06:16;102632.77;;;-4.96;100.00
76730;BME280;65653;53.106;18.046;2024-01-10T06:08:43;102629.27;;;-4.94;100.00
76730;BME280;65653;53.106;18.046;2024-01-10T06:11:10;102634.38;;;-4.91;100.00
76730;BME280;65653;53.106;18.046;2024-01-10T06:13:36;102633.40;;;-4.89;100.00
76730;BME280;65653;53.106;18.046;2024-01-10T06:16:03;102634.55;;;-4.87;100.00
76730;BME280;65653;53.106;18.046;2024-01-10T06:18:30;102634.13;;;-4.85;100.00
76730;BME280;65653;53.106;18.046;2024-01-10T06:20:57;102634.75;;;-4.83;100.00
76730;BME280;65653;53.106;18.046;2024-01-10T06:23:23;102637.48;;;-4.79;100.00
76730;BME280;65653;53.106;18.046;2024-01-10T06:25:50;102631.47;;;-4.77;100.00
76730;BME280;65653;53.106;18.046;2024-01-10T06:28:16;102629.97;;;-4.76;100.00
76730;BME280;65653;53.106;18.046;2024-01-10T06:30:43;102633.10;;;-4.73;100.00
76730;BME280;65653;53.106;18.046;2024-01-10T06:33:09;102634.05;;;-4.70;100.00
76730;BME280;65653;53.106;18.046;2024-01-10T06:35:36;102638.64;;;-4.67;100.00
76730;BME280;65653;53.106;18.046;2024-01-10T06:38:03;102638.56;;;-4.65;100.00
76730;BME280;65653;53.106;18.046;2024-01-10T06:40:30;102635.99;;;-4.64;100.00
76730;BME280;65653;53.106;18.046;2024-01-10T06:42:57;102632.30;;;-4.62;100.00
76730;BME280;65653;53.106;18.046;2024-01-10T06:45:23;102630.58;;;-4.59;100.00
76730;BME280;65653;53.106;18.046;2024-01-10T06:47:50;102626.41;;;-4.59;100.00
76730;BME280;65653;53.106;18.046;2024-01-10T06:50:16;102628.69;;;-4.58;100.00
76730;BME280;65653;53.106;18.046;2024-01-10T06:52:45;102632.84;;;-4.58;100.00
76730;BME280;65653;53.106;18.046;2024-01-10T06:55:12;102632.83;;;-4.57;100.00
76730;BME280;65653;53.106;18.046;2024-01-10T06:57:38;102625.98;;;-4.58;100.00
76730;BME280;65653;53.106;18.046;2024-01-10T07:00:05;102622.14;;;-4.56;100.00
76730;BME280;65653;53.106;18.046;2024-01-10T07:02:37;102623.42;;;-4.52;100.00
76730;BME280;65653;53.106;18.046;2024-01-10T07:05:10;102623.98;;;-4.48;100.00
76730;BME280;65653;53.106;18.046;2024-01-10T07:07:36;102624.73;;;-4.44;100.00
76730;BME280;65653;53.106;18.046;2024-01-10T07:10:04;102629.98;;;-4.41;100.00
76730;BME280;65653;53.106;18.046;2024-01-10T07:12:34;102628.12;;;-4.39;100.00
76730;BME280;65653;53.106;18.046;2024-01-10T07:15:00;102624.39;;;-4.36;100.00
76730;BME280;65653;53.106;18.046;2024-01-10T07:17:29;102621.20;;;-4.34;100.00
76730;BME280;65653;53.106;18.046;2024-01-10T07:19:56;102620.92;;;-4.32;100.00
76730;BME280;65653;53.106;18.046;2024-01-10T07:22:23;102616.69;;;-4.29;100.00
76730;BME280;65653;53.106;18.046;2024-01-10T07:24:49;102620.38;;;-4.26;100.00
76730;BME280;65653;53.106;18.046;2024-01-10T07:27:15;102617.88;;;-4.23;100.00
76730;BME280;65653;53.106;18.046;2024-01-10T07:29:42;102617.38;;;-4.20;100.00
76730;BME280;65653;53.106;18.046;2024-01-10T07:32:09;102616.23;;;-4.18;100.00
76730;BME280;65653;53.106;18.046;2024-01-10T07:34:39;102615.98;;;-4.16;100.00
76730;BME280;65653;53.106;18.046;2024-01-10T07:37:06;102616.19;;;-4.17;100.00
76730;BME280;65653;53.106;18.046;2024-01-10T07:39:32;102617.33;;;-4.19;100.00
76730;BME280;65653;53.106;18.046;2024-01-10T07:41:59;102620.25;;;-4.19;100.00
76730;BME280;65653;53.106;18.046;2024-01-10T07:44:28;102617.86;;;-4.23;100.00
76730;BME280;65653;53.106;18.046;2024-01-10T07:46:55;102616.65;;;-4.24;100.00
76730;BME280;65653;53.106;18.046;2024-01-10T07:49:21;102620.33;;;-4.21;100.00
76730;BME280;65653;53.106;18.046;2024-01-10T07:51:50;102624.65;;;-4.21;100.00
76730;BME280;65653;53.106;18.046;2024-01-10T07:54:17;102628.82;;;-4.22;100.00
76730;BME280;65653;53.106;18.046;2024-01-10T07:56:43;102627.27;;;-4.19;100.00
76730;BME280;65653;53.106;18.046;2024-01-10T07:59:10;102624.71;;;-4.18;100.00
76730;BME280;65653;53.106;18.046;2024-01-10T08:01:54;102629.48;;;-4.20;100.00
76730;BME280;65653;53.106;18.046;2024-01-10T08:04:22;102632.14;;;-4.19;100.00
76730;BME280;65653;53.106;18.046;2024-01-10T08:06:49;102631.99;;;-4.16;100.00
76730;BME280;65653;53.106;18.046;2024-01-10T08:09:16;102634.50;;;-4.11;100.00
76730;BME280;65653;53.106;18.046;2024-01-10T08:11:43;102630.29;;;-4.14;100.00
76730;BME280;65653;53.106;18.046;2024-01-10T08:14:10;102625.18;;;-4.13;100.00
76730;BME280;65653;53.106;18.046;2024-01-10T08:16:37;102625.47;;;-4.07;100.00
76730;BME280;65653;53.106;18.046;2024-01-10T08:19:04;102626.75;;;-4.03;100.00
76730;BME280;65653;53.106;18.046;2024-01-10T08:21:30;102635.14;;;-4.01;100.00
76730;BME280;65653;53.106;18.046;2024-01-10T08:23:57;102638.67;;;-4.03;100.00
76730;BME280;65653;53.106;18.046;2024-01-10T08:26:24;102639.75;;;-4.03;100.00
76730;BME280;65653;53.106;18.046;2024-01-10T08:28:51;102640.77;;;-3.98;100.00
76730;BME280;65653;53.106;18.046;2024-01-10T08:31:17;102642.86;;;-3.92;100.00
76730;BME280;65653;53.106;18.046;2024-01-10T08:33:44;102640.20;;;-3.93;100.00
76730;BME280;65653;53.106;18.046;2024-01-10T08:36:11;102643.38;;;-3.91;100.00
76730;BME280;65653;53.106;18.046;2024-01-10T08:38:38;102647.69;;;-3.91;100.00
76730;BME280;65653;53.106;18.046;2024-01-10T08:41:08;102647.66;;;-3.90;100.00
76730;BME280;65653;53.106;18.046;2024-01-10T08:43:38;102645.66;;;-3.86;100.00
76730;BME280;65653;53.106;18.046;2024-01-10T08:46:04;102649.09;;;-3.82;100.00
76730;BME280;65653;53.106;18.046;2024-01-10T08:48:31;102647.73;;;-3.80;100.00
76730;BME280;65653;53.106;18.046;2024-01-10T08:50:57;102649.88;;;-3.75;100.00
76730;BME280;65653;53.106;18.046;2024-01-10T08:53:24;102647.21;;;-3.72;100.00
76730;BME280;65653;53.106;18.046;2024-01-10T08:55:51;102652.38;;;-3.66;100.00
76730;BME280;65653;53.106;18.046;2024-01-10T08:58:18;102659.13;;;-3.60;100.00
76730;BME280;65653;53.106;18.046;2024-01-10T09:00:44;102659.84;;;-3.55;100.00
76730;BME280;65653;53.106;18.046;2024-01-10T09:03:11;102660.56;;;-3.51;100.00
76730;BME280;65653;53.106;18.046;2024-01-10T09:05:38;102659.42;;;-3.46;100.00
76730;BME280;65653;53.106;18.046;2024-01-10T09:08:06;102660.21;;;-3.39;100.00
76730;BME280;65653;53.106;18.046;2024-01-10T09:10:32;102657.49;;;-3.36;100.00
76730;BME280;65653;53.106;18.046;2024-01-10T09:12:59;102661.58;;;-3.30;100.00
76730;BME280;65653;53.106;18.046;2024-01-10T09:15:26;102654.10;;;-3.24;100.00
76730;BME280;65653;53.106;18.046;2024-01-10T09:17:53;102655.87;;;-3.20;100.00
76730;BME280;65653;53.106;18.046;2024-01-10T09:20:19;102651.79;;;-3.14;100.00
76730;BME280;65653;53.106;18.046;2024-01-10T09:22:46;102650.43;;;-3.08;100.00
76730;BME280;65653;53.106;18.046;2024-01-10T09:25:13;102646.65;;;-3.04;100.00
76730;BME280;65653;53.106;18.046;2024-01-10T09:27:40;102632.95;;;-3.01;100.00
76730;BME280;65653;53.106;18.046;2024-01-10T09:30:10;102627.14;;;-3.00;100.00
76730;BME280;65653;53.106;18.046;2024-01-10T09:32:40;102625.58;;;-3.02;100.00
76730;BME280;65653;53.106;18.046;2024-01-10T09:35:08;102630.73;;;-2.97;100.00
76730;BME280;65653;53.106;18.046;2024-01-10T09:37:34;102627.16;;;-2.94;100.00
76730;BME280;65653;53.106;18.046;2024-01-10T09:40:01;102621.33;;;-2.93;100.00
76730;BME280;65653;53.106;18.046;2024-01-10T09:42:29;102611.95;;;-2.89;100.00
76730;BME280;65653;53.106;18.046;2024-01-10T09:44:57;102605.79;;;-2.81;100.00
76730;BME280;65653;53.106;18.046;2024-01-10T09:47:25;102604.62;;;-2.79;100.00
76730;BME280;65653;53.106;18.046;2024-01-10T09:49:52;102603.65;;;-2.78;100.00
76730;BME280;65653;53.106;18.046;2024-01-10T09:52:27;102599.71;;;-2.79;100.00
76730;BME280;65653;53.106;18.046;2024-01-10T09:54:56;102593.24;;;-2.72;100.00
76730;BME280;65653;53.106;18.046;2024-01-10T09:57:26;102589.27;;;-2.69;100.00
76730;BME280;65653;53.106;18.046;2024-01-10T09:59:54;102580.92;;;-2.71;100.00
76730;BME280;65653;53.106;18.046;2024-01-10T10:02:23;102578.78;;;-2.68;100.00
76730;BME280;65653;53.106;18.046;2024-01-10T10:05:15;102574.94;;;-2.68;100.00
76730;BME280;65653;53.106;18.046;2024-01-10T10:07:49;102586.46;;;-2.67;100.00
76730;BME280;65653;53.106;18.046;2024-01-10T10:10:17;102590.48;;;-2.64;100.00
76730;BME280;65653;53.106;18.046;2024-01-10T10:12:45;102594.39;;;-2.59;100.00
76730;BME280;65653;53.106;18.046;2024-01-10T10:15:14;102595.23;;;-2.54;100.00
76730;BME280;65653;53.106;18.046;2024-01-10T10:17:45;102589.92;;;-2.53;100.00
76730;BME280;65653;53.106;18.046;2024-01-10T10:20:23;102592.37;;;-2.55;100.00
76730;BME280;65653;53.106;18.046;2024-01-10T10:25:34;102593.71;;;-2.52;100.00
76730;BME280;65653;53.106;18.046;2024-01-10T10:28:02;102598.30;;;-2.47;100.00
76730;BME280;65653;53.106;18.046;2024-01-10T10:30:31;102607.95;;;-2.45;100.00
76730;BME280;65653;53.106;18.046;2024-01-10T10:32:57;102601.81;;;-2.52;100.00
76730;BME280;65653;53.106;18.046;2024-01-10T10:35:24;102605.54;;;-2.50;100.00
76730;BME280;65653;53.106;18.046;2024-01-10T10:37:52;102604.33;;;-2.48;100.00
76730;BME280;65653;53.106;18.046;2024-01-10T10:40:20;102605.92;;;-2.51;100.00
76730;BME280;65653;53.106;18.046;2024-01-10T10:42:54;102604.67;;;-2.51;100.00
76730;BME280;65653;53.106;18.046;2024-01-10T10:45:22;102603.55;;;-2.47;100.00
76730;BME280;65653;53.106;18.046;2024-01-10T10:48:01;102605.29;;;-2.53;100.00
76730;BME280;65653;53.106;18.046;2024-01-10T10:50:33;102598.52;;;-2.55;100.00
76730;BME280;65653;53.106;18.046;2024-01-10T10:53:02;102597.05;;;-2.54;100.00
76730;BME280;65653;53.106;18.046;2024-01-10T10:55:29;102594.52;;;-2.58;100.00
76730;BME280;65653;53.106;18.046;2024-01-10T10:57:58;102597.64;;;-2.63;100.00
76730;BME280;65653;53.106;18.046;2024-01-10T11:00:34;102596.62;;;-2.68;100.00
76730;BME280;65653;53.106;18.046;2024-01-10T11:03:03;102589.18;;;-2.74;100.00
76730;BME280;65653;53.106;18.046;2024-01-10T11:05:31;102590.59;;;-2.77;100.00
76730;BME280;65653;53.106;18.046;2024-01-10T11:08:01;102588.64;;;-2.81;100.00
76730;BME280;65653;53.106;18.046;2024-01-10T11:10:33;102589.02;;;-2.85;100.00
76730;BME280;65653;53.106;18.046;2024-01-10T11:18:32;102593.63;;;-2.83;100.00
76730;BME280;65653;53.106;18.046;2024-01-10T11:23:45;102577.98;;;-2.93;100.00
76730;BME280;65653;53.106;18.046;2024-01-10T11:26:16;102571.74;;;-2.95;100.00
76730;BME280;65653;53.106;18.046;2024-01-10T11:28:43;102571.88;;;-2.98;100.00
76730;BME280;65653;53.106;18.046;2024-01-10T11:31:13;102565.94;;;-2.98;100.00
76730;BME280;65653;53.106;18.046;2024-01-10T11:33:40;102565.31;;;-3.00;100.00
76730;BME280;65653;53.106;18.046;2024-01-10T11:36:19;102567.40;;;-2.98;100.00
76730;BME280;65653;53.106;18.046;2024-01-10T11:47:03;102565.14;;;-3.11;100.00
76730;BME280;65653;53.106;18.046;2024-01-10T11:49:30;102560.48;;;-3.08;100.00
76730;BME280;65653;53.106;18.046;2024-01-10T11:51:58;102567.41;;;-3.06;100.00
76730;BME280;65653;53.106;18.046;2024-01-10T11:54:41;102561.47;;;-3.10;100.00
76730;BME280;65653;53.106;18.046;2024-01-10T11:57:29;102557.44;;;-3.16;100.00
76730;BME280;65653;53.106;18.046;2024-01-10T11:59:59;102547.38;;;-3.18;100.00
76730;BME280;65653;53.106;18.046;2024-01-10T12:02:27;102548.30;;;-3.18;100.00
76730;BME280;65653;53.106;18.046;2024-01-10T12:04:54;102548.17;;;-3.15;100.00
76730;BME280;65653;53.106;18.046;2024-01-10T12:07:21;102550.41;;;-3.13;100.00
76730;BME280;65653;53.106;18.046;2024-01-10T12:09:53;102548.20;;;-3.19;100.00
76730;BME280;65653;53.106;18.046;2024-01-10T12:12:21;102548.48;;;-3.18;100.00
76730;BME280;65653;53.106;18.046;2024-01-10T12:14:50;102551.80;;;-3.19;100.00
76730;BME280;65653;53.106;18.046;2024-01-10T12:17:18;102546.68;;;-3.25;100.00
76730;BME280;65653;53.106;18.046;2024-01-10T12:19:45;102551.22;;;-3.30;100.00
76730;BME280;65653;53.106;18.046;2024-01-10T12:22:16;102550.92;;;-3.31;100.00
76730;BME280;65653;53.106;18.046;2024-01-10T12:24:52;102550.51;;;-3.34;100.00
76730;BME280;65653;53.106;18.046;2024-01-10T12:27:19;102541.56;;;-3.36;100.00
76730;BME280;65653;53.106;18.046;2024-01-10T12:29:51;102545.15;;;-3.35;100.00
76730;BME280;65653;53.106;18.046;2024-01-10T12:32:19;102548.64;;;-3.40;100.00
76730;BME280;65653;53.106;18.046;2024-01-10T12:34:47;102544.16;;;-3.41;100.00
76730;BME280;65653;53.106;18.046;2024-01-10T12:37:14;102546.29;;;-3.40;100.00
76730;BME280;65653;53.106;18.046;2024-01-10T12:39:40;102540.18;;;-3.44;100.00
76730;BME280;65653;53.106;18.046;2024-01-10T12:42:07;102543.20;;;-3.47;100.00
76730;BME280;65653;53.106;18.046;2024-01-10T12:44:34;102540.37;;;-3.48;100.00
76730;BME280;65653;53.106;18.046;2024-01-10T12:47:01;102536.36;;;-3.51;100.00
76730;BME280;65653;53.106;18.046;2024-01-10T12:49:29;102531.77;;;-3.53;100.00
76730;BME280;65653;53.106;18.046;2024-01-10T12:51:56;102533.92;;;-3.49;100.00